Time;durP1;ratioP1;P1;durP2;ratioP2;P2;SDS_P1;SDS_P2;PMS_P1;PMS_P2;Temp;Humidity;BMP_temperature;BMP_pressure;BME280_temperature;BME280_humidity;BME280_pressure;Samples;Min_cycle;Max_cycle;Signal;HPM_P1;HPM_P2
2023/01/21 00:01:06;;;;;;;23.60;11.53;;;1.80;32.30;;;;;;4973387;28;20434;-76
2023/01/21 00:03:31;;;;;;;20.23;11.30;;;2.40;32.80;;;;;;4974620;28;20702;-75
2023/01/21 00:05:57;;;;;;;23.00;14.13;;;2.10;71.70;;;;;;4971778;28;20441;-75
2023/01/21 00:08:23;;;;;;;16.60;10.67;;;3.60;99.90;;;;;;4972457;28;20187;-75
2023/01/21 00:10:48;;;;;;;18.10;10.03;;;4.50;99.90;;;;;;4972898;28;20266;-75
2023/01/21 00:13:14;;;;;;;14.93;9.83;;;4.70;53.10;;;;;;4972920;28;20921;-75
2023/01/21 00:15:40;;;;;;;13.67;8.90;;;5.00;20.00;;;;;;4972475;28;20233;-75
2023/01/21 00:18:06;;;;;;;15.57;10.10;;;5.40;9.60;;;;;;4967045;28;20442;-73
2023/01/21 00:20:31;;;;;;;20.98;13.55;;;5.00;1.00;;;;;;4970965;28;20465;-76
2023/01/21 00:22:57;;;;;;;19.97;13.13;;;4.30;1.00;;;;;;4971210;28;20716;-76
2023/01/21 00:25:22;;;;;;;18.30;12.13;;;3.60;1.00;;;;;;4970500;28;20214;-75
2023/01/21 00:27:48;;;;;;;19.80;12.53;;;3.10;1.00;;;;;;4971058;28;20187;-76
2023/01/21 00:30:13;;;;;;;20.13;13.13;;;2.90;5.60;;;;;;4971501;28;20199;-75
2023/01/21 00:32:39;;;;;;;19.70;12.37;;;2.70;8.40;;;;;;4972089;28;20190;-75
2023/01/21 00:35:06;;;;;;;19.70;12.63;;;2.60;13.20;;;;;;4970655;28;20250;-76
2023/01/21 00:37:31;;;;;;;28.70;13.80;;;2.90;14.90;;;;;;4966454;28;20192;-78
2023/01/21 00:39:57;;;;;;;24.93;13.70;;;2.40;19.80;;;;;;4970704;28;20504;-75
2023/01/21 00:42:22;;;;;;;27.10;14.37;;;2.40;18.70;;;;;;4971575;28;20666;-78
2023/01/21 00:44:48;;;;;;;22.13;13.53;;;2.80;21.30;;;;;;4969032;28;20198;-75
2023/01/21 00:47:13;;;;;;;22.43;13.70;;;2.20;23.00;;;;;;4968284;28;20195;-75
2023/01/21 00:49:39;;;;;;;27.77;14.87;;;2.50;24.40;;;;;;4969493;28;20187;-77
2023/01/21 00:52:05;;;;;;;26.10;15.10;;;2.20;23.60;;;;;;4968746;28;20690;-75
2023/01/21 00:54:31;;;;;;;23.40;13.90;;;2.60;26.10;;;;;;4970257;28;20234;-75
2023/01/21 00:56:57;;;;;;;24.67;15.17;;;2.50;24.20;;;;;;4969697;28;20443;-75
2023/01/21 00:59:23;;;;;;;23.90;13.40;;;2.20;28.20;;;;;;4965217;28;20478;-75
2023/01/21 01:01:48;;;;;;;23.80;14.73;;;2.00;24.60;;;;;;4969254;28;20439;-75
2023/01/21 01:04:14;;;;;;;22.90;14.20;;;2.40;26.30;;;;;;4969731;28;20550;-75
2023/01/21 01:06:39;;;;;;;20.27;12.13;;;2.00;25.20;;;;;;4969623;28;20681;-77
2023/01/21 01:09:05;;;;;;;21.57;12.30;;;2.00;24.60;;;;;;4971348;28;20287;-75
2023/01/21 01:11:31;;;;;;;23.70;13.03;;;1.90;24.60;;;;;;4968968;28;20219;-75
2023/01/21 01:13:58;;;;;;;19.53;12.50;;;2.40;26.60;;;;;;4971581;28;20192;-75
2023/01/21 01:16:23;;;;;;;20.17;12.10;;;2.30;27.60;;;;;;4969969;28;20470;-75
2023/01/21 01:18:51;;;;;;;18.17;11.77;;;2.00;24.70;;;;;;4965757;28;21003;-75
2023/01/21 01:21:18;;;;;;;22.30;12.27;;;1.90;24.50;;;;;;4969895;28;20183;-75
2023/01/21 01:23:44;;;;;;;18.90;11.63;;;2.10;25.80;;;;;;4971374;28;20489;-75
2023/01/21 01:26:12;;;;;;;22.73;12.70;;;2.00;23.60;;;;;;4967780;28;20471;-75
2023/01/21 01:28:38;;;;;;;25.30;12.80;;;1.90;25.90;;;;;;4971460;28;20435;-76
2023/01/21 01:31:05;;;;;;;23.17;13.00;;;2.40;25.10;;;;;;4966502;28;20493;-75
2023/01/21 01:33:31;;;;;;;23.30;13.67;;;1.90;24.30;;;;;;4969327;28;20216;-76
2023/01/21 01:36:18;;;;;;;20.57;12.00;;;1.90;25.50;;;;;;4968800;28;20497;-75
2023/01/21 01:38:43;;;;;;;18.53;11.80;;;2.20;27.30;;;;;;4963395;28;20215;-75
2023/01/21 01:41:16;;;;;;;23.90;14.13;;;1.80;24.70;;;;;;4970638;28;20441;-75
2023/01/21 01:44:03;;;;;;;21.00;13.17;;;1.80;25.40;;;;;;4969533;28;20198;-75
2023/01/21 01:46:31;;;;;;;25.87;13.63;;;1.80;24.60;;;;;;4970504;28;20549;-75
2023/01/21 01:49:11;;;;;;;23.90;14.23;;;1.80;25.40;;;;;;4968042;28;20454;-75
2023/01/21 01:51:56;;;;;;;21.40;12.70;;;1.80;26.90;;;;;;4970618;28;20943;-76
2023/01/21 01:54:26;;;;;;;22.93;13.17;;;1.80;23.50;;;;;;4968890;28;20539;-75
2023/01/21 01:56:56;;;;;;;25.57;14.40;;;1.80;24.90;;;;;;4969773;28;20462;-75
2023/01/21 01:59:22;;;;;;;24.03;14.10;;;1.80;22.90;;;;;;4969018;28;20467;-74
2023/01/21 02:01:48;;;;;;;23.57;13.77;;;1.80;22.00;;;;;;4969652;28;20562;-75
2023/01/21 02:04:21;;;;;;;23.47;13.27;;;1.70;20.80;;;;;;4969468;28;20526;-74
2023/01/21 02:06:47;;;;;;;23.80;13.77;;;1.70;23.80;;;;;;4968426;28;20184;-75
2023/01/21 02:09:13;;;;;;;22.07;13.87;;;1.70;22.40;;;;;;4969155;28;20455;-75
2023/01/21 02:11:38;;;;;;;25.80;14.50;;;1.70;22.20;;;;;;4970596;28;20515;-75
2023/01/21 02:14:04;;;;;;;25.13;13.70;;;1.70;21.60;;;;;;4968152;28;20681;-74
2023/01/21 02:16:57;;;;;;;21.93;13.60;;;1.70;19.30;;;;;;4968420;28;20215;-74
2023/01/21 02:20:00;;;;;;;21.60;12.77;;;1.60;20.70;;;;;;4966946;28;20208;-76
2023/01/21 02:23:03;;;;;;;25.47;14.03;;;1.60;19.20;;;;;;4970007;28;20422;-74
2023/01/21 02:25:47;;;;;;;23.40;12.30;;;1.50;21.10;;;;;;4967724;28;20459;-74
2023/01/21 02:28:46;;;;;;;25.07;14.13;;;1.50;18.10;;;;;;4970253;28;21160;-72
2023/01/21 02:31:46;;;;;;;29.20;17.80;;;1.50;23.10;;;;;;4949894;28;20434;-75
2023/01/21 02:34:31;;;;;;;23.10;14.43;;;1.40;20.10;;;;;;4963427;28;20439;-75
2023/01/21 02:37:16;;;;;;;21.20;13.10;;;1.40;23.50;;;;;;4969743;28;20445;-75
2023/01/21 02:39:51;;;;;;;22.20;12.97;;;1.40;21.60;;;;;;4972871;28;20540;-75
2023/01/21 02:42:35;;;;;;;22.00;12.53;;;1.30;22.30;;;;;;4972764;28;20430;-75
2023/01/21 02:45:27;;;;;;;25.57;12.97;;;1.40;22.40;;;;;;4973344;28;20459;-75
2023/01/21 02:48:04;;;;;;;22.97;12.63;;;1.30;17.70;;;;;;4977030;28;20428;-75
2023/01/21 02:50:39;;;;;;;23.40;13.60;;;1.30;18.00;;;;;;4972737;28;20473;-74
2023/01/21 02:53:05;;;;;;;24.77;13.23;;;1.30;18.10;;;;;;4974370;28;20514;-75
2023/01/21 02:55:37;;;;;;;23.33;12.57;;;1.30;14.70;;;;;;4971956;28;21054;-75
2023/01/21 02:58:13;;;;;;;23.53;13.37;;;1.20;12.30;;;;;;4972574;28;20215;-75
2023/01/21 03:00:54;;;;;;;24.03;14.27;;;1.20;12.40;;;;;;4967426;28;20940;-75
2023/01/21 03:03:35;;;;;;;21.80;12.47;;;1.10;11.70;;;;;;4973753;28;20514;-76
2023/01/21 03:06:06;;;;;;;20.83;12.03;;;1.00;10.90;;;;;;4968486;28;20505;-75
2023/01/21 03:08:46;;;;;;;22.37;12.80;;;1.00;9.40;;;;;;4973496;28;20443;-76
2023/01/21 03:11:15;;;;;;;22.07;13.50;;;0.90;10.90;;;;;;4972126;28;20533;-75
2023/01/21 03:17:00;;;;;;;22.80;13.43;;;0.80;11.70;;;;;;4963872;28;20502;-74
2023/01/21 03:19:35;;;;;;;27.33;12.67;;;1.40;14.20;;;;;;4968564;28;20475;-75
2023/01/21 03:22:07;;;;;;;25.20;13.57;;;0.80;11.60;;;;;;4971793;28;20450;-75
2023/01/21 03:24:34;;;;;;;22.03;12.40;;;0.80;15.60;;;;;;4970777;28;20997;-75
2023/01/21 03:27:02;;;;;;;23.80;12.70;;;0.70;12.90;;;;;;4971989;28;20791;-75
2023/01/21 03:29:30;;;;;;;22.87;13.20;;;0.70;12.90;;;;;;4969814;28;20447;-75
2023/01/21 03:32:03;;;;;;;18.87;12.07;;;0.60;12.90;;;;;;4973231;28;20439;-75
2023/01/21 03:34:32;;;;;;;25.43;12.63;;;0.60;11.50;;;;;;4971555;28;20494;-75
2023/01/21 03:37:06;;;;;;;22.07;13.00;;;0.60;11.60;;;;;;4972797;28;20934;-75
2023/01/21 03:39:53;;;;;;;23.57;12.80;;;0.60;9.40;;;;;;4971769;28;20471;-75
2023/01/21 03:42:19;;;;;;;21.80;12.20;;;0.70;14.00;;;;;;4972940;28;20829;-75
2023/01/21 03:44:45;;;;;;;18.87;11.93;;;0.70;9.10;;;;;;4971997;28;20550;-75
2023/01/21 03:47:25;;;;;;;24.60;12.33;;;1.10;13.30;;;;;;4972980;28;20187;-75
2023/01/21 03:49:53;;;;;;;22.07;11.60;;;0.70;11.80;;;;;;4966210;28;20331;-75
2023/01/21 03:52:22;;;;;;;22.60;12.03;;;0.80;12.80;;;;;;4971574;28;20431;-74
2023/01/21 03:54:48;;;;;;;19.80;11.57;;;0.90;11.70;;;;;;4971746;28;20554;-76
2023/01/21 03:57:14;;;;;;;21.63;11.73;;;0.90;12.60;;;;;;4970815;28;20530;-75
2023/01/21 03:59:39;;;;;;;16.50;11.00;;;1.00;12.50;;;;;;4971290;28;20204;-75
2023/01/21 04:02:05;;;;;;;19.00;12.00;;;1.00;9.60;;;;;;4970011;28;20196;-75
2023/01/21 04:04:30;;;;;;;18.80;10.97;;;1.10;13.00;;;;;;4971069;28;20212;-77
2023/01/21 04:06:56;;;;;;;17.73;10.83;;;1.10;12.50;;;;;;4969561;28;20806;-75
2023/01/21 04:09:21;;;;;;;19.60;11.33;;;1.20;9.30;;;;;;4971336;28;20539;-75
2023/01/21 04:11:47;;;;;;;17.50;11.07;;;1.30;8.90;;;;;;4972383;28;20271;-76
2023/01/21 04:14:12;;;;;;;23.67;11.70;;;1.40;9.90;;;;;;4972483;28;20234;-75
2023/01/21 04:16:38;;;;;;;18.60;11.83;;;1.40;11.50;;;;;;4967212;28;20639;-75
2023/01/21 04:19:04;;;;;;;22.90;12.00;;;1.50;9.50;;;;;;4966765;28;20220;-75
2023/01/21 04:21:29;;;;;;;20.07;10.90;;;1.50;11.60;;;;;;4971448;28;20184;-76
2023/01/21 04:23:55;;;;;;;21.37;12.47;;;1.50;4.40;;;;;;4970892;28;20965;-74
2023/01/21 04:26:20;;;;;;;23.30;12.77;;;1.50;6.80;;;;;;4970949;28;20686;-74
2023/01/21 04:28:46;;;;;;;26.13;13.23;;;1.40;10.30;;;;;;4970160;28;20191;-75
2023/01/21 04:31:11;;;;;;;19.13;11.27;;;1.30;10.40;;;;;;4968136;28;20180;-75
2023/01/21 04:33:37;;;;;;;22.87;13.03;;;1.20;7.90;;;;;;4971925;28;20179;-74
2023/01/21 04:36:03;;;;;;;25.50;11.30;;;1.10;8.90;;;;;;4967859;28;20212;-74
2023/01/21 04:38:28;;;;;;;23.60;12.40;;;0.90;7.20;;;;;;4970478;28;20204;-75
2023/01/21 04:40:54;;;;;;;23.20;12.73;;;1.20;13.00;;;;;;4970728;28;20183;-74
2023/01/21 04:43:19;;;;;;;22.87;11.57;;;1.00;10.80;;;;;;4971852;28;20187;-76
2023/01/21 04:45:45;;;;;;;24.03;13.73;;;0.70;7.10;;;;;;4955683;28;20199;-75
2023/01/21 04:48:10;;;;;;;27.40;14.37;;;0.90;12.20;;;;;;4969914;28;20220;-73
2023/01/21 04:50:36;;;;;;;23.80;13.90;;;1.00;10.60;;;;;;4970265;28;20184;-75
2023/01/21 04:53:02;;;;;;;26.93;14.80;;;0.50;8.60;;;;;;4971238;28;20187;-75
2023/01/21 04:55:27;;;;;;;26.13;15.20;;;0.70;9.10;;;;;;4968160;28;20239;-75
2023/01/21 04:57:53;;;;;;;28.27;15.40;;;0.40;13.20;;;;;;4970895;28;20658;-75
2023/01/21 05:00:19;;;;;;;32.20;14.93;;;0.70;9.90;;;;;;4971488;28;20196;-74
2023/01/21 05:02:44;;;;;;;26.13;15.30;;;0.30;10.40;;;;;;4970465;28;20195;-75
2023/01/21 05:05:10;;;;;;;29.60;15.43;;;0.20;11.10;;;;;;4969687;28;20463;-74
2023/01/21 05:07:35;;;;;;;25.57;14.20;;;0.10;13.00;;;;;;4968403;28;20183;-75
2023/01/21 05:10:01;;;;;;;31.07;15.90;;;0.00;12.60;;;;;;4971303;28;20698;-74
2023/01/21 05:12:27;;;;;;;26.13;15.20;;;-0.10;13.80;;;;;;4970216;28;20188;-75
2023/01/21 05:14:53;;;;;;;23.97;13.60;;;-0.20;12.40;;;;;;4970131;28;20265;-75
2023/01/21 05:17:19;;;;;;;23.17;12.70;;;-0.20;11.30;;;;;;4963384;28;20993;-75
2023/01/21 05:19:45;;;;;;;27.57;14.27;;;-0.30;13.70;;;;;;4970684;28;20473;-75
2023/01/21 05:22:10;;;;;;;22.90;13.20;;;0.10;12.40;;;;;;4970016;28;20530;-75
2023/01/21 05:24:36;;;;;;;22.70;11.93;;;-0.30;14.00;;;;;;4970701;28;20690;-75
2023/01/21 05:27:01;;;;;;;22.53;12.20;;;-0.40;14.70;;;;;;4969772;28;20219;-74
2023/01/21 05:29:27;;;;;;;21.60;12.40;;;-0.40;15.30;;;;;;4970034;28;20198;-75
2023/01/21 05:31:52;;;;;;;25.33;13.50;;;0.10;14.70;;;;;;4968824;28;20187;-74
2023/01/21 05:34:18;;;;;;;20.90;11.60;;;-0.40;10.60;;;;;;4967716;28;20203;-75
2023/01/21 05:36:43;;;;;;;22.60;12.30;;;-0.40;12.40;;;;;;4966745;28;20709;-74
2023/01/21 05:39:09;;;;;;;27.63;12.97;;;-0.40;13.80;;;;;;4968996;28;20222;-76
2023/01/21 05:41:35;;;;;;;21.60;11.63;;;-0.50;12.40;;;;;;4969045;28;20186;-74
2023/01/21 05:44:00;;;;;;;24.73;11.70;;;-0.50;13.10;;;;;;4970111;28;20242;-74
2023/01/21 05:46:26;;;;;;;23.13;11.27;;;-0.10;14.80;;;;;;4969493;28;20591;-74
2023/01/21 05:48:51;;;;;;;21.40;12.07;;;-0.50;12.00;;;;;;4971160;28;20202;-75
2023/01/21 05:51:16;;;;;;;25.43;13.50;;;-0.50;17.00;;;;;;4969625;28;20199;-74
2023/01/21 05:53:42;;;;;;;28.13;13.63;;;-0.40;19.70;;;;;;4970016;28;20226;-75
2023/01/21 05:56:07;;;;;;;26.47;13.50;;;-0.30;27.70;;;;;;4970690;28;20582;-74
2023/01/21 05:58:33;;;;;;;25.80;12.77;;;-0.10;17.40;;;;;;4968136;28;20239;-74
2023/01/21 06:00:59;;;;;;;25.13;12.90;;;-0.60;18.00;;;;;;4968226;28;20214;-74
2023/01/21 06:03:25;;;;;;;23.20;12.00;;;-0.20;16.80;;;;;;4969394;28;20683;-72
2023/01/21 06:05:51;;;;;;;24.67;12.93;;;-0.70;14.70;;;;;;4968547;28;20416;-76
2023/01/21 06:08:17;;;;;;;25.90;13.20;;;-0.80;15.80;;;;;;4969913;28;20199;-76
2023/01/21 06:10:43;;;;;;;33.08;13.93;;;-0.80;19.10;;;;;;4968631;28;20449;-76
2023/01/21 06:13:13;;;;;;;27.03;15.10;;;-0.30;75.80;;;;;;4967329;28;20583;-74
2023/01/21 06:15:39;;;;;;;28.27;15.10;;;-0.30;30.90;;;;;;4967958;28;20238;-74
2023/01/21 06:18:06;;;;;;;28.93;15.43;;;-0.40;21.60;;;;;;4970121;28;20462;-74
2023/01/21 06:20:32;;;;;;;21.60;12.30;;;-0.60;21.90;;;;;;4966487;28;20193;-74
2023/01/21 06:22:59;;;;;;;24.20;13.00;;;-0.70;16.50;;;;;;4968859;28;20533;-74
2023/01/21 06:25:25;;;;;;;25.40;13.87;;;-0.80;18.20;;;;;;4968216;28;20211;-74
2023/01/21 06:27:54;;;;;;;28.23;13.30;;;-0.90;21.30;;;;;;4965514;28;20430;-74
2023/01/21 06:30:20;;;;;;;28.00;14.50;;;-1.00;18.40;;;;;;4969187;28;20176;-75
2023/01/21 06:32:45;;;;;;;27.00;13.27;;;-1.00;30.00;;;;;;4969527;28;20439;-74
2023/01/21 06:35:11;;;;;;;26.57;13.90;;;-0.70;23.80;;;;;;4967379;28;20196;-74
2023/01/21 06:37:36;;;;;;;23.80;12.30;;;-1.20;23.20;;;;;;4966502;28;20184;-74
2023/01/21 06:40:02;;;;;;;24.00;12.23;;;-1.20;20.70;;;;;;4967180;28;20203;-73
2023/01/21 06:42:28;;;;;;;22.80;12.23;;;-1.30;21.50;;;;;;4969741;28;20655;-74
2023/01/21 06:44:53;;;;;;;27.83;13.73;;;-1.00;24.40;;;;;;4967369;28;20459;-76
2023/01/21 06:47:19;;;;;;;25.83;14.47;;;-1.40;29.90;;;;;;4968121;28;20191;-75
2023/01/21 06:49:44;;;;;;;31.37;15.10;;;-1.00;26.40;;;;;;4969759;28;20184;-74
2023/01/21 06:52:10;;;;;;;24.80;13.37;;;-1.00;30.00;;;;;;4970179;28;20187;-74
2023/01/21 06:54:35;;;;;;;27.73;13.63;;;-1.40;24.90;;;;;;4968734;28;20774;-76
2023/01/21 06:57:01;;;;;;;40.53;24.07;;;-1.10;21.20;;;;;;4969920;28;20273;-75
2023/01/21 06:59:26;;;;;;;26.57;13.67;;;-1.20;18.70;;;;;;4966542;28;20207;-75
2023/01/21 07:01:52;;;;;;;23.93;13.50;;;-1.60;22.20;;;;;;4969733;28;20318;-75
2023/01/21 07:04:18;;;;;;;27.37;14.13;;;-1.60;23.80;;;;;;4970015;28;20197;-75
2023/01/21 07:06:43;;;;;;;24.60;13.10;;;-1.60;24.20;;;;;;4968141;28;20195;-75
2023/01/21 07:09:09;;;;;;;26.00;13.93;;;-1.20;25.00;;;;;;4969936;28;20190;-74
2023/01/21 07:11:34;;;;;;;25.83;13.70;;;-1.20;26.30;;;;;;4969821;28;20192;-75
2023/01/21 07:14:00;;;;;;;25.20;13.70;;;-1.40;20.60;;;;;;4970097;28;20184;-74
2023/01/21 07:16:26;;;;;;;22.37;12.87;;;-1.20;22.40;;;;;;4967913;28;20218;-75
2023/01/21 07:18:51;;;;;;;24.43;14.03;;;-1.10;24.10;;;;;;4967870;28;20694;-75
2023/01/21 07:21:17;;;;;;;25.43;13.57;;;-1.20;19.90;;;;;;4967076;28;20180;-75
2023/01/21 07:23:43;;;;;;;22.87;12.63;;;-1.10;21.20;;;;;;4964968;28;20546;-75
2023/01/21 07:26:09;;;;;;;26.80;14.00;;;-1.50;18.80;;;;;;4970642;28;20557;-74
2023/01/21 07:28:34;;;;;;;26.10;13.33;;;-1.20;23.40;;;;;;4973118;28;20514;-74
2023/01/21 07:31:01;;;;;;;24.47;14.20;;;-1.50;22.20;;;;;;4970337;28;20187;-74
2023/01/21 07:33:27;;;;;;;28.07;14.63;;;-1.60;22.10;;;;;;4972021;28;20188;-74
2023/01/21 07:35:53;;;;;;;27.23;12.87;;;-1.20;24.60;;;;;;4969644;28;21024;-75
2023/01/21 07:38:18;;;;;;;22.87;13.20;;;-1.10;25.60;;;;;;4969525;28;20739;-75
2023/01/21 07:40:47;;;;;;;28.03;15.93;;;-1.00;17.50;;;;;;4972148;28;20188;-74
2023/01/21 07:43:12;;;;;;;30.63;15.93;;;-0.90;21.10;;;;;;4971833;28;20187;-74
2023/01/21 07:45:38;;;;;;;33.63;14.60;;;-1.00;22.50;;;;;;4970466;28;20451;-75
2023/01/21 07:48:04;;;;;;;30.63;15.00;;;-0.80;21.50;;;;;;4971253;28;20195;-74
2023/01/21 07:50:29;;;;;;;25.30;15.90;;;-1.20;14.70;;;;;;4972666;28;20187;-75
2023/01/21 07:52:55;;;;;;;26.57;13.80;;;-1.10;12.40;;;;;;4973020;28;20867;-74
2023/01/21 07:55:21;;;;;;;26.53;14.23;;;-1.10;9.60;;;;;;4971034;28;20203;-75
2023/01/21 07:57:46;;;;;;;27.00;13.70;;;-1.00;9.60;;;;;;4972473;28;20536;-75
2023/01/21 08:00:13;;;;;;;27.37;14.07;;;-0.90;8.00;;;;;;4972484;28;20203;-74
2023/01/21 08:02:39;;;;;;;22.57;13.57;;;-0.90;3.90;;;;;;4971091;28;20180;-75
2023/01/21 08:05:06;;;;;;;28.93;14.67;;;-0.90;7.20;;;;;;4970854;28;20451;-75
2023/01/21 08:07:31;;;;;;;26.27;14.70;;;-0.90;5.90;;;;;;4971993;28;20442;-72
2023/01/21 08:09:57;;;;;;;27.30;13.20;;;-0.80;4.70;;;;;;4970778;28;20430;-74
2023/01/21 08:12:23;;;;;;;30.37;13.30;;;-0.70;4.60;;;;;;4972620;28;20219;-75
2023/01/21 08:14:48;;;;;;;24.17;14.27;;;-0.30;6.90;;;;;;4971897;28;20204;-74
2023/01/21 08:17:14;;;;;;;26.20;13.53;;;-0.60;7.50;;;;;;4969068;28;20190;-74
2023/01/21 08:19:39;;;;;;;25.63;14.03;;;-0.60;5.50;;;;;;4968916;28;20336;-75
2023/01/21 08:22:05;;;;;;;27.93;13.53;;;-0.10;3.40;;;;;;4969808;28;20180;-75
2023/01/21 08:24:30;;;;;;;28.40;14.37;;;0.10;1.00;;;;;;4970805;28;20254;-75
2023/01/21 08:26:58;;;;;;;26.30;14.17;;;-0.20;1.00;;;;;;4970851;28;20186;-75
2023/01/21 08:29:24;;;;;;;27.60;14.40;;;0.30;1.00;;;;;;4970632;28;20187;-76
2023/01/21 08:31:49;;;;;;;24.80;12.90;;;0.30;1.00;;;;;;4969927;28;20517;-74
2023/01/21 08:34:15;;;;;;;22.30;13.07;;;0.20;1.00;;;;;;4970286;28;20676;-75
2023/01/21 08:36:40;;;;;;;23.20;12.97;;;0.60;1.00;;;;;;4967732;28;20187;-75
2023/01/21 08:39:06;;;;;;;24.73;13.10;;;0.60;1.00;;;;;;4970402;28;20266;-74
2023/01/21 08:41:32;;;;;;;21.50;11.97;;;0.60;1.00;;;;;;4970412;28;20196;-75
2023/01/21 08:43:58;;;;;;;21.10;12.63;;;0.70;1.00;;;;;;4969777;28;20194;-74
2023/01/21 08:46:23;;;;;;;22.00;12.50;;;1.10;1.00;;;;;;4969044;28;20558;-75
2023/01/21 08:48:49;;;;;;;23.30;12.17;;;1.10;1.00;;;;;;4969927;28;20271;-74
2023/01/21 08:51:15;;;;;;;23.00;13.07;;;1.60;1.00;;;;;;4971856;28;20263;-75
2023/01/21 08:53:40;;;;;;;25.33;13.03;;;1.30;1.00;;;;;;4971245;28;20892;-75
2023/01/21 08:56:06;;;;;;;25.23;13.40;;;1.50;1.00;;;;;;4971091;28;20238;-74
2023/01/21 08:58:32;;;;;;;34.47;15.93;;;1.60;1.00;;;;;;4971345;28;20266;-74
2023/01/21 09:00:58;;;;;;;58.37;19.87;;;1.70;1.00;;;;;;4971035;28;20681;-75
2023/01/21 09:03:24;;;;;;;29.23;17.33;;;1.80;1.00;;;;;;4971824;28;20199;-76
2023/01/21 09:05:50;;;;;;;30.27;15.60;;;2.20;1.00;;;;;;4969340;28;20451;-75
2023/01/21 09:08:17;;;;;;;36.20;20.67;;;1.90;1.00;;;;;;4971382;28;20188;-75
2023/01/21 09:11:01;;;;;;;39.93;20.53;;;2.00;1.00;;;;;;4971023;28;20427;-74
2023/01/21 09:13:31;;;;;;;29.10;14.80;;;2.10;1.00;;;;;;4971376;28;20984;-76
2023/01/21 09:15:57;;;;;;;52.03;25.00;;;2.30;1.00;;;;;;4970494;28;20445;-75
2023/01/21 09:18:23;;;;;;;26.40;15.63;;;2.40;1.00;;;;;;4969074;28;20471;-75
2023/01/21 09:20:48;;;;;;;33.87;16.27;;;2.40;1.00;;;;;;4970154;28;20197;-76
2023/01/21 09:23:23;;;;;;;23.80;14.13;;;2.50;1.00;;;;;;4967602;28;20451;-75
2023/01/21 09:26:12;;;;;;;24.37;14.47;;;2.80;1.00;;;;;;4968255;28;20207;-76
2023/01/21 09:28:39;;;;;;;29.50;15.80;;;2.80;1.00;;;;;;4962620;28;20454;-75
2023/01/21 09:31:07;;;;;;;30.70;17.00;;;3.00;1.00;;;;;;4968471;28;20458;-76
2023/01/21 09:33:34;;;;;;;26.43;15.50;;;3.20;1.00;;;;;;4967621;28;20191;-76
2023/01/21 09:36:02;;;;;;;26.93;15.20;;;3.60;1.00;;;;;;4966175;28;20553;-75
2023/01/21 09:38:29;;;;;;;25.57;15.63;;;3.70;1.00;;;;;;4969246;28;20504;-76
2023/01/21 09:41:01;;;;;;;26.90;15.47;;;3.90;1.00;;;;;;4967592;28;20446;-76
2023/01/21 09:43:33;;;;;;;25.17;14.23;;;3.70;1.00;;;;;;4967768;28;20445;-76
2023/01/21 09:46:01;;;;;;;24.00;14.47;;;3.60;1.00;;;;;;4969235;28;20451;-77
2023/01/21 09:48:40;;;;;;;26.67;15.37;;;3.80;1.00;;;;;;4974778;28;20970;-76
2023/01/21 09:51:19;;;;;;;25.80;15.63;;;3.90;1.00;;;;;;4970204;28;20973;-76
2023/01/21 09:53:55;;;;;;;29.00;15.50;;;4.00;1.00;;;;;;4969121;28;20845;-75
2023/01/21 09:56:33;;;;;;;27.40;16.37;;;4.10;1.00;;;;;;4970548;28;20537;-76
2023/01/21 09:59:21;;;;;;;28.20;16.40;;;4.10;1.00;;;;;;4969124;28;20996;-76
2023/01/21 10:01:48;;;;;;;26.93;16.47;;;4.20;1.00;;;;;;4969242;28;20446;-76
2023/01/21 10:04:30;;;;;;;24.30;14.70;;;4.20;1.00;;;;;;4969287;28;20474;-77
2023/01/21 10:07:14;;;;;;;27.60;15.70;;;4.20;1.00;;;;;;4969584;28;20435;-76
2023/01/21 10:10:03;;;;;;;28.30;15.37;;;4.10;1.00;;;;;;4969069;28;20521;-77
2023/01/21 10:12:56;;;;;;;26.73;16.30;;;4.00;1.00;;;;;;4970542;28;20481;-76
2023/01/21 10:15:40;;;;;;;31.63;17.40;;;4.10;1.00;;;;;;4962749;28;20474;-75
2023/01/21 10:18:17;;;;;;;26.73;15.40;;;4.20;1.00;;;;;;4967384;28;20513;-76
2023/01/21 10:21:14;;;;;;;66.90;38.40;;;4.40;1.00;;;;;;4970745;28;20510;-76
2023/01/21 10:23:50;;;;;;;53.53;27.60;;;4.70;1.00;;;;;;4963770;28;20473;-74
2023/01/21 10:26:15;;;;;;;62.67;32.90;;;5.00;1.00;;;;;;4971563;28;20505;-75
2023/01/21 10:28:46;;;;;;;59.00;27.07;;;5.10;1.00;;;;;;4971148;28;20475;-75
2023/01/21 10:31:21;;;;;;;58.43;32.60;;;5.20;1.00;;;;;;4971254;28;20195;-74
2023/01/21 10:33:47;;;;;;;34.00;21.10;;;5.50;1.00;;;;;;4971295;28;20517;-75
2023/01/21 10:36:46;;;;;;;49.33;30.10;;;5.90;1.00;;;;;;4970374;28;20497;-75
2023/01/21 10:39:15;;;;;;;31.40;16.90;;;6.40;1.00;;;;;;4965641;28;20708;-75
2023/01/21 10:41:54;;;;;;;29.73;19.73;;;6.90;1.00;;;;;;4971393;28;20543;-73
2023/01/21 10:45:00;;;;;;;27.83;17.43;;;7.40;1.00;;;;;;4970505;28;20964;-74
2023/01/21 10:47:46;;;;;;;28.53;16.90;;;7.50;1.00;;;;;;4968984;28;20439;-74
2023/01/21 10:50:14;;;;;;;33.30;17.90;;;7.70;1.00;;;;;;4961695;28;20447;-74
2023/01/21 10:52:56;;;;;;;28.43;16.70;;;7.90;1.00;;;;;;4969293;28;20793;-74
2023/01/21 10:55:46;;;;;;;29.53;16.87;;;7.60;1.00;;;;;;4969373;28;20477;-74
2023/01/21 10:58:46;;;;;;;30.00;16.63;;;7.20;1.00;;;;;;4963186;28;20942;-74
2023/01/21 11:01:27;;;;;;;22.60;15.27;;;6.70;1.00;;;;;;4968071;28;20444;-74
2023/01/21 11:03:56;;;;;;;26.67;14.97;;;6.90;1.00;;;;;;4970617;28;20463;-74
2023/01/21 11:06:23;;;;;;;25.97;15.20;;;7.20;1.00;;;;;;4966893;28;20543;-74
2023/01/21 11:08:54;;;;;;;27.00;16.17;;;7.50;1.00;;;;;;4972226;28;20441;-74
2023/01/21 11:11:27;;;;;;;25.97;15.47;;;8.00;1.00;;;;;;4971620;28;20850;-74
2023/01/21 11:13:53;;;;;;;27.47;15.67;;;8.70;1.00;;;;;;4968911;28;20431;-74
2023/01/21 11:16:38;;;;;;;30.30;16.30;;;9.50;1.00;;;;;;4969046;28;20454;-73
2023/01/21 11:19:05;;;;;;;30.13;17.57;;;10.00;1.00;;;;;;4972853;28;20465;-74
2023/01/21 11:21:31;;;;;;;28.23;16.57;;;9.80;1.00;;;;;;4971665;28;20523;-74
2023/01/21 11:24:03;;;;;;;28.60;16.20;;;9.30;1.00;;;;;;4971710;28;20866;-74
2023/01/21 11:26:32;;;;;;;29.70;16.80;;;8.90;1.00;;;;;;4971013;28;20204;-74
2023/01/21 11:29:16;;;;;;;29.73;18.53;;;8.60;1.00;;;;;;4971353;28;20454;-75
2023/01/21 11:32:04;;;;;;;26.50;16.80;;;8.30;1.00;;;;;;4973442;28;20438;-74
2023/01/21 11:34:30;;;;;;;29.10;16.90;;;8.30;1.00;;;;;;4971076;28;20499;-74
2023/01/21 11:37:01;;;;;;;29.67;17.70;;;8.10;1.00;;;;;;4971445;28;20450;-75
2023/01/21 11:39:33;;;;;;;30.33;18.90;;;7.50;1.00;;;;;;4971112;28;20463;-74
2023/01/21 11:42:07;;;;;;;36.90;18.30;;;6.90;1.00;;;;;;4973127;28;20435;-75
2023/01/21 11:44:33;;;;;;;28.60;17.00;;;6.20;1.00;;;;;;4972386;28;20524;-75
2023/01/21 11:46:59;;;;;;;40.87;23.67;;;5.50;1.00;;;;;;4969556;28;20439;-74
2023/01/21 11:49:31;;;;;;;27.63;16.67;;;5.10;1.00;;;;;;4970404;28;21005;-74
2023/01/21 11:52:26;;;;;;;30.40;17.63;;;4.90;1.00;;;;;;4972301;28;20184;-75
2023/01/21 11:54:51;;;;;;;58.07;30.00;;;4.90;1.00;;;;;;4961030;28;20464;-74
2023/01/21 11:57:28;;;;;;;31.87;18.10;;;4.90;1.00;;;;;;4972851;28;20987;-74
2023/01/21 12:00:06;;;;;;;53.60;27.43;;;4.60;1.00;;;;;;4971905;28;20565;-74
2023/01/21 12:02:37;;;;;;;62.40;29.00;;;4.70;1.00;;;;;;4971276;28;20441;-75
2023/01/21 12:05:08;;;;;;;128.67;55.40;;;4.50;1.00;;;;;;4970364;28;21032;-74
2023/01/21 12:07:38;;;;;;;48.67;24.67;;;4.50;1.00;;;;;;4966940;28;20442;-74
2023/01/21 12:10:24;;;;;;;27.93;15.37;;;4.30;1.00;;;;;;4967645;28;20809;-74
2023/01/21 12:12:54;;;;;;;25.63;14.20;;;4.20;1.00;;;;;;4971730;28;20923;-74
2023/01/21 12:15:57;;;;;;;28.90;14.77;;;4.10;1.00;;;;;;4970842;28;20458;-74
2023/01/21 12:18:31;;;;;;;25.50;14.60;;;4.10;1.00;;;;;;4966244;28;20473;-74
2023/01/21 12:21:05;;;;;;;27.53;14.47;;;4.20;1.00;;;;;;4971641;28;20994;-75
2023/01/21 12:24:05;;;;;;;23.33;13.10;;;4.10;1.00;;;;;;4970544;28;20442;-74
2023/01/21 12:26:34;;;;;;;27.10;13.90;;;4.20;1.00;;;;;;4970740;28;20470;-74
2023/01/21 12:29:08;;;;;;;25.57;14.23;;;4.10;1.00;;;;;;4964279;28;20819;-75
2023/01/21 12:31:43;;;;;;;20.27;12.40;;;4.00;1.00;;;;;;4968580;28;20517;-74
2023/01/21 12:34:13;;;;;;;25.90;12.73;;;3.80;1.00;;;;;;4970069;28;20453;-75
2023/01/21 12:36:45;;;;;;;25.47;13.30;;;3.70;1.00;;;;;;4970572;28;20447;-74
2023/01/21 12:39:14;;;;;;;27.30;12.93;;;3.70;1.00;;;;;;4968714;28;20472;-74
2023/01/21 12:41:42;;;;;;;27.33;13.83;;;3.60;1.00;;;;;;4967468;28;20522;-75
2023/01/21 12:44:34;;;;;;;27.37;13.20;;;3.70;1.00;;;;;;4970389;28;20486;-74
2023/01/21 12:47:08;;;;;;;22.73;13.33;;;3.90;1.00;;;;;;4968465;28;20453;-75
2023/01/21 12:49:58;;;;;;;26.80;13.67;;;3.90;1.00;;;;;;4968914;28;20529;-75
2023/01/21 12:52:54;;;;;;;21.27;13.10;;;4.00;1.00;;;;;;4967103;28;20446;-75
2023/01/21 12:55:27;;;;;;;22.33;13.00;;;4.10;1.00;;;;;;4956025;28;21028;-75
2023/01/21 12:58:04;;;;;;;25.70;14.60;;;4.50;1.00;;;;;;4971675;28;20427;-74